Idaville, Indiana
Current Conditions -  °F | °C
As of 3:35 PM on Thursday 27 Nov 2014 (Local Time) from KMCX Reporting Station
Overcast Overcast  
Wind Chill: 15°   Ceiling: 2100
Heat Index: 27°   Visibility: 10mi
Dew Point: 20°   Wind: 16mph
Humidity: 75%   Direction: 300°WNW
Pressure: 30.33"   Gusts: 21mph
Location:  40.76°N, 86.65°W
Report Text: KMCX 272035Z AUTO 30014G18KT 10SM OVC021 M03/M07 A3033 RMK AO2 T10271066
Loading
Personal Weather Stations






























Interactive Weather Map New forecast layout! Learn more

10-Day Weather Forecast

Advertisements
Track Severe Weather on mobile